createdAt,value
2016-11-23T00:00:36.671Z,1012.54
2016-11-23T00:01:36.690Z,1012.52
2016-11-23T00:02:36.710Z,1012.53
2016-11-23T00:03:36.733Z,1012.54
2016-11-23T00:04:36.751Z,1012.53
2016-11-23T00:05:36.771Z,1012.54
2016-11-23T00:06:36.791Z,1012.55
2016-11-23T00:07:36.811Z,1012.55
2016-11-23T00:08:36.833Z,1012.54
2016-11-23T00:10:36.871Z,1012.56
2016-11-23T00:11:36.894Z,1012.57
2016-11-23T00:12:36.913Z,1012.57
2016-11-23T00:13:36.933Z,1012.54
2016-11-23T00:14:36.953Z,1012.57
2016-11-23T00:15:36.972Z,1012.56
2016-11-23T00:16:36.991Z,1012.54
2016-11-23T00:17:37.011Z,1012.53
2016-11-23T00:18:37.031Z,1012.54
2016-11-23T00:19:37.052Z,1012.55
2016-11-23T00:20:37.073Z,1012.56
2016-11-23T00:21:37.091Z,1012.53
2016-11-23T00:22:37.113Z,1012.56
2016-11-23T00:23:37.130Z,1012.54
2016-11-23T00:24:37.151Z,1012.55
2016-11-23T00:26:37.191Z,1012.48
2016-11-23T00:27:37.212Z,1012.53
2016-11-23T00:28:37.230Z,1012.48
2016-11-23T00:29:37.253Z,1012.52
2016-11-23T00:30:37.269Z,1012.52
2016-11-23T00:31:37.292Z,1012.5
2016-11-23T00:32:37.312Z,1012.56
2016-11-23T00:33:37.330Z,1012.56
2016-11-23T00:34:37.349Z,1012.63
2016-11-23T00:35:37.371Z,1012.66
2016-11-23T00:36:37.391Z,1012.66
2016-11-23T00:37:37.409Z,1012.68
2016-11-23T00:38:37.430Z,1012.69
2016-11-23T00:39:37.448Z,1012.68
2016-11-23T00:40:37.470Z,1012.73
2016-11-23T00:42:37.508Z,1012.66
2016-11-23T00:43:37.527Z,1012.7
2016-11-23T00:44:37.547Z,1012.7
2016-11-23T00:45:37.566Z,1012.74
2016-11-23T00:46:37.587Z,1012.73
2016-11-23T00:47:37.609Z,1012.74
2016-11-23T00:48:37.629Z,1012.75
2016-11-23T00:49:37.648Z,1012.76
2016-11-23T00:50:37.666Z,1012.74
2016-11-23T00:51:37.685Z,1012.73
2016-11-23T00:52:37.704Z,1012.69
2016-11-23T00:53:37.724Z,1012.7
2016-11-23T00:54:37.744Z,1012.74
2016-11-23T00:55:37.767Z,1012.78
2016-11-23T00:56:37.783Z,1012.8
2016-11-23T00:58:37.824Z,1012.87
2016-11-23T00:59:37.850Z,1012.85
2016-11-23T01:00:37.864Z,1012.83
2016-11-23T01:01:37.885Z,1012.83
2016-11-23T01:02:37.902Z,1012.87
2016-11-23T01:03:37.921Z,1012.9
2016-11-23T01:04:37.941Z,1012.87
2016-11-23T01:05:37.961Z,1012.87
2016-11-23T01:06:37.984Z,1012.89
2016-11-23T01:07:38.002Z,1012.86
2016-11-23T01:08:38.019Z,1012.88
2016-11-23T01:09:38.040Z,1012.85
2016-11-23T01:10:38.059Z,1012.85
2016-11-23T01:11:38.082Z,1012.85
2016-11-23T01:13:38.119Z,1012.87
2016-11-23T01:14:38.145Z,1012.89
2016-11-23T01:15:38.158Z,1012.9
2016-11-23T01:16:38.180Z,1012.9
2016-11-23T01:17:38.200Z,1012.85
2016-11-23T01:18:38.216Z,1012.85
2016-11-23T01:19:38.239Z,1012.83
2016-11-23T01:20:38.256Z,1012.85
2016-11-23T01:21:38.276Z,1012.84
2016-11-23T01:22:38.296Z,1012.81
2016-11-23T01:23:38.314Z,1012.85
2016-11-23T01:24:38.334Z,1012.85
2016-11-23T01:25:38.352Z,1012.86
2016-11-23T01:26:38.372Z,1012.86
2016-11-23T01:27:38.393Z,1012.82
2016-11-23T01:28:38.413Z,1012.8
2016-11-23T01:29:38.433Z,1012.79
2016-11-23T01:30:38.450Z,1012.74
2016-11-23T01:31:38.472Z,1012.78
2016-11-23T01:32:38.488Z,1012.74
2016-11-23T01:33:38.508Z,1012.75
2016-11-23T01:34:38.530Z,1012.74
2016-11-23T01:35:38.549Z,1012.72
2016-11-23T01:36:38.567Z,1012.72
2016-11-23T01:37:38.586Z,1012.67
2016-11-23T01:38:38.605Z,1012.72
2016-11-23T01:39:38.625Z,1012.71
2016-11-23T01:40:38.643Z,1012.66
2016-11-23T01:41:38.665Z,1012.65
2016-11-23T01:42:38.684Z,1012.61
2016-11-23T01:43:38.701Z,1012.63
2016-11-23T01:45:38.742Z,1012.59
2016-11-23T01:46:38.762Z,1012.63
2016-11-23T01:47:38.780Z,1012.64
2016-11-23T01:48:38.800Z,1012.62
2016-11-23T01:49:38.819Z,1012.63
2016-11-23T01:50:38.839Z,1012.64
2016-11-23T01:51:38.855Z,1012.57
2016-11-23T01:52:38.875Z,1012.57
2016-11-23T01:53:38.894Z,1012.57
2016-11-23T01:54:38.914Z,1012.54
2016-11-23T01:55:38.932Z,1012.52
2016-11-23T01:56:38.952Z,1012.51
2016-11-23T01:57:38.973Z,1012.52
2016-11-23T01:58:38.989Z,1012.55
2016-11-23T01:59:39.010Z,1012.53
2016-11-23T02:01:39.049Z,1012.56
2016-11-23T02:02:39.066Z,1012.6
2016-11-23T02:03:39.087Z,1012.62
2016-11-23T02:04:39.106Z,1012.65
2016-11-23T02:05:39.125Z,1012.68
2016-11-23T02:06:39.144Z,1012.68
2016-11-23T02:07:39.162Z,1012.67
2016-11-23T02:08:39.181Z,1012.69
2016-11-23T02:09:39.199Z,1012.72
2016-11-23T02:10:39.220Z,1012.73
2016-11-23T02:11:39.238Z,1012.75
2016-11-23T02:12:39.259Z,1012.77
2016-11-23T02:13:39.275Z,1012.79
2016-11-23T02:14:39.297Z,1012.79
2016-11-23T02:15:39.317Z,1012.8
2016-11-23T02:17:39.352Z,1012.8
2016-11-23T02:18:39.371Z,1012.81
2016-11-23T02:19:39.391Z,1012.8
2016-11-23T02:20:39.410Z,1012.84
2016-11-23T02:21:39.429Z,1012.83
2016-11-23T02:22:39.451Z,1012.85
2016-11-23T02:23:39.471Z,1012.84
2016-11-23T02:24:39.486Z,1012.87
2016-11-23T02:25:39.505Z,1012.9
2016-11-23T02:26:39.525Z,1012.9
2016-11-23T02:27:39.543Z,1012.92
2016-11-23T02:28:39.563Z,1012.96
2016-11-23T02:29:39.582Z,1012.98
2016-11-23T02:30:39.604Z,1012.98
2016-11-23T02:31:39.622Z,1013.03
2016-11-23T02:33:39.659Z,1012.96
2016-11-23T02:34:39.680Z,1012.95
2016-11-23T02:35:39.697Z,1012.95
2016-11-23T02:36:39.718Z,1012.96
2016-11-23T02:37:39.736Z,1012.92
2016-11-23T02:38:39.755Z,1012.96
2016-11-23T02:39:39.774Z,1013
2016-11-23T02:40:39.795Z,1012.97
2016-11-23T02:41:39.815Z,1013
2016-11-23T02:42:39.831Z,1012.98
2016-11-23T02:43:39.853Z,1013
2016-11-23T02:44:39.870Z,1013
2016-11-23T02:45:39.889Z,1012.95
2016-11-23T02:46:39.910Z,1012.97
2016-11-23T02:48:39.949Z,1012.96
2016-11-23T02:49:39.968Z,1012.99
2016-11-23T02:50:39.985Z,1012.99
2016-11-23T02:51:40.004Z,1012.99
2016-11-23T02:52:40.024Z,1012.98
2016-11-23T02:53:40.044Z,1012.99
2016-11-23T02:54:40.061Z,1013.02
2016-11-23T02:55:40.083Z,1012.97
2016-11-23T02:56:40.099Z,1012.99
2016-11-23T02:57:40.121Z,1012.98
2016-11-23T02:58:40.138Z,1012.98
2016-11-23T02:59:40.159Z,1012.94
2016-11-23T03:00:40.175Z,1012.95
2016-11-23T03:01:40.195Z,1012.97
2016-11-23T03:02:40.216Z,1012.95
2016-11-23T03:03:40.236Z,1012.95
2016-11-23T03:04:40.254Z,1012.94
2016-11-23T03:05:40.271Z,1012.96
2016-11-23T03:06:40.292Z,1012.93
2016-11-23T03:07:40.308Z,1012.94
2016-11-23T03:08:40.328Z,1012.94
2016-11-23T03:09:40.349Z,1013.01
2016-11-23T03:10:40.372Z,1012.98
2016-11-23T03:11:40.386Z,1012.99
2016-11-23T03:12:40.406Z,1013.02
2016-11-23T03:13:40.425Z,1012.97
2016-11-23T03:14:40.444Z,1013
2016-11-23T03:15:40.460Z,1013.02
2016-11-23T03:16:40.479Z,1012.99
2016-11-23T03:17:40.500Z,1013
2016-11-23T03:18:40.519Z,1012.98
2016-11-23T03:20:40.555Z,1012.99
2016-11-23T03:21:40.576Z,1013.01
2016-11-23T03:22:40.592Z,1012.97
2016-11-23T03:23:40.611Z,1013
2016-11-23T03:24:40.630Z,1013.02
2016-11-23T03:25:40.649Z,1013.05
2016-11-23T03:26:40.669Z,1013.02
2016-11-23T03:27:40.693Z,1013.03
2016-11-23T03:28:40.708Z,1012.98
2016-11-23T03:29:40.724Z,1012.97
2016-11-23T03:30:40.743Z,1012.97
2016-11-23T03:31:40.764Z,1012.93
2016-11-23T03:32:40.783Z,1012.87
2016-11-23T03:33:40.801Z,1012.88
2016-11-23T03:34:40.820Z,1012.9
2016-11-23T03:36:40.856Z,1012.88
2016-11-23T03:37:40.876Z,1012.92
2016-11-23T03:38:40.895Z,1012.9
2016-11-23T03:39:40.912Z,1012.92
2016-11-23T03:40:40.932Z,1012.9
2016-11-23T03:41:40.951Z,1012.91
2016-11-23T03:42:40.975Z,1012.9
2016-11-23T03:43:40.987Z,1012.89
2016-11-23T03:44:41.007Z,1012.91
2016-11-23T03:45:41.025Z,1012.9
2016-11-23T03:46:41.043Z,1012.92
2016-11-23T03:47:41.062Z,1012.93
2016-11-23T03:48:41.081Z,1012.91
2016-11-23T03:49:41.099Z,1012.94
2016-11-23T03:50:41.121Z,1012.92
2016-11-23T03:52:41.155Z,1012.91
2016-11-23T03:53:41.176Z,1012.97
2016-11-23T03:54:41.193Z,1012.94
2016-11-23T03:55:41.211Z,1012.95
2016-11-23T03:56:41.230Z,1012.97
2016-11-23T03:57:41.251Z,1012.96
2016-11-23T03:58:41.268Z,1012.98
2016-11-23T03:59:41.286Z,1013
2016-11-23T04:00:41.307Z,1012.98
2016-11-23T04:01:41.326Z,1012.96
2016-11-23T04:02:41.344Z,1012.96
2016-11-23T04:03:41.363Z,1012.99
2016-11-23T04:04:41.379Z,1012.98
2016-11-23T04:05:41.398Z,1012.97
2016-11-23T04:06:41.418Z,1013
2016-11-23T04:08:41.456Z,1013.04
2016-11-23T04:09:41.473Z,1013.06
2016-11-23T04:10:41.491Z,1013.03
2016-11-23T04:11:41.510Z,1013.07
2016-11-23T04:12:41.531Z,1013.09
2016-11-23T04:13:41.547Z,1013.06
2016-11-23T04:14:41.566Z,1013.15
2016-11-23T04:15:41.588Z,1013.14
2016-11-23T04:16:41.604Z,1013.12
2016-11-23T04:17:41.624Z,1013.18
2016-11-23T04:18:41.643Z,1013.21
2016-11-23T04:19:41.662Z,1013.19
2016-11-23T04:20:41.679Z,1013.19
2016-11-23T04:21:41.700Z,1013.17
2016-11-23T04:23:41.737Z,1013.18
2016-11-23T04:24:41.757Z,1013.18
2016-11-23T04:25:41.772Z,1013.23
2016-11-23T04:26:41.791Z,1013.22
2016-11-23T04:27:41.810Z,1013.23
2016-11-23T04:28:41.828Z,1013.27
2016-11-23T04:29:41.849Z,1013.33
2016-11-23T04:30:41.868Z,1013.36
2016-11-23T04:31:41.886Z,1013.42
2016-11-23T04:32:41.903Z,1013.44
2016-11-23T04:33:41.922Z,1013.43
2016-11-23T04:34:41.943Z,1013.41
2016-11-23T04:35:41.962Z,1013.41
2016-11-23T04:36:41.978Z,1013.45
2016-11-23T04:37:41.996Z,1013.46
2016-11-23T04:38:42.017Z,1013.51
2016-11-23T04:39:42.033Z,1013.51
2016-11-23T04:40:42.052Z,1013.54
2016-11-23T04:41:42.071Z,1013.49
2016-11-23T04:42:42.089Z,1013.53
2016-11-23T04:43:42.108Z,1013.52
2016-11-23T04:44:42.127Z,1013.53
2016-11-23T04:45:42.146Z,1013.54
2016-11-23T04:46:42.166Z,1013.53
2016-11-23T04:47:42.182Z,1013.57
2016-11-23T04:48:42.201Z,1013.55
2016-11-23T04:49:42.226Z,1013.58
2016-11-23T04:50:42.240Z,1013.56
2016-11-23T04:51:42.257Z,1013.62
2016-11-23T04:52:42.278Z,1013.63
2016-11-23T04:53:42.296Z,1013.62
2016-11-23T04:55:42.333Z,1013.67
2016-11-23T04:56:42.353Z,1013.66
2016-11-23T04:57:42.368Z,1013.65
2016-11-23T04:58:42.389Z,1013.67
2016-11-23T04:59:42.406Z,1013.63
2016-11-23T05:00:42.427Z,1013.65
2016-11-23T05:01:42.445Z,1013.67
2016-11-23T05:02:42.464Z,1013.59
2016-11-23T05:03:42.482Z,1013.64
2016-11-23T05:04:42.500Z,1013.61
2016-11-23T05:05:42.519Z,1013.59
2016-11-23T05:06:42.535Z,1013.61
2016-11-23T05:07:42.557Z,1013.61
2016-11-23T05:08:42.572Z,1013.62
2016-11-23T05:09:42.593Z,1013.68
2016-11-23T05:11:42.629Z,1013.67
2016-11-23T05:12:42.649Z,1013.68
2016-11-23T05:13:42.665Z,1013.7
2016-11-23T05:14:42.684Z,1013.7
2016-11-23T05:15:42.703Z,1013.76
2016-11-23T05:16:42.723Z,1013.76
2016-11-23T05:17:42.742Z,1013.81
2016-11-23T05:18:42.762Z,1013.86
2016-11-23T05:19:42.779Z,1013.89
2016-11-23T05:20:42.797Z,1013.91
2016-11-23T05:21:42.815Z,1013.89
2016-11-23T05:22:42.835Z,1013.89
2016-11-23T05:23:42.853Z,1013.91
2016-11-23T05:24:42.871Z,1013.93
2016-11-23T05:25:42.888Z,1013.92
2016-11-23T05:27:42.929Z,1013.9
2016-11-23T05:28:42.945Z,1013.93
2016-11-23T05:29:42.962Z,1013.89
2016-11-23T05:30:42.980Z,1013.96
2016-11-23T05:31:43.003Z,1013.95
2016-11-23T05:32:43.019Z,1013.99
2016-11-23T05:33:43.039Z,1013.99
2016-11-23T05:34:43.054Z,1013.96
2016-11-23T05:35:43.074Z,1014.01
2016-11-23T05:36:43.093Z,1014.05
2016-11-23T05:37:43.110Z,1014.01
2016-11-23T05:38:43.129Z,1014
2016-11-23T05:39:43.146Z,1014.04
2016-11-23T05:40:43.165Z,1014.05
2016-11-23T05:41:43.184Z,1014.02
2016-11-23T05:43:43.219Z,1014
2016-11-23T05:44:43.238Z,1013.96
2016-11-23T05:45:43.255Z,1013.95
2016-11-23T05:46:43.274Z,1013.92
2016-11-23T05:47:43.292Z,1013.92
2016-11-23T05:48:43.310Z,1013.93
2016-11-23T05:49:43.328Z,1013.95
2016-11-23T05:50:43.347Z,1013.97
2016-11-23T05:51:43.367Z,1014.06
2016-11-23T05:52:43.385Z,1014.04
2016-11-23T05:53:43.401Z,1014.1
2016-11-23T05:54:43.421Z,1014.07
2016-11-23T05:55:43.438Z,1014.12
2016-11-23T05:56:43.456Z,1014.1
2016-11-23T05:58:43.495Z,1014.11
2016-11-23T05:59:43.511Z,1014.12
2016-11-23T06:00:43.529Z,1014.12
2016-11-23T06:01:43.550Z,1014.11
2016-11-23T06:02:43.566Z,1014.13
2016-11-23T06:03:43.583Z,1014.11
2016-11-23T06:04:43.602Z,1014.12
2016-11-23T06:05:43.622Z,1014.18
2016-11-23T06:06:43.638Z,1014.16
2016-11-23T06:07:43.656Z,1014.16
2016-11-23T06:08:43.674Z,1014.16
2016-11-23T06:09:43.693Z,1014.21
2016-11-23T06:10:43.710Z,1014.22
2016-11-23T06:11:43.731Z,1014.19
2016-11-23T06:12:43.747Z,1014.19
2016-11-23T06:13:43.766Z,1014.12
2016-11-23T06:14:43.783Z,1014.11
2016-11-23T06:15:43.803Z,1014.12
2016-11-23T06:16:43.821Z,1014.12
2016-11-23T06:17:43.837Z,1014.06
2016-11-23T06:18:43.855Z,1014.1
2016-11-23T06:19:43.873Z,1014.09
2016-11-23T06:20:43.891Z,1014.08
2016-11-23T06:21:43.911Z,1014.07
2016-11-23T06:22:43.929Z,1014.1
2016-11-23T06:23:43.948Z,1014.06
2016-11-23T06:24:43.966Z,1014.06
2016-11-23T06:25:43.981Z,1014.06
2016-11-23T06:26:44.001Z,1014
2016-11-23T06:27:44.017Z,1014
2016-11-23T06:28:44.037Z,1014
2016-11-23T06:30:44.072Z,1014.03
2016-11-23T06:31:44.089Z,1014.12
2016-11-23T06:32:44.109Z,1014.13
2016-11-23T06:33:44.126Z,1014.18
2016-11-23T06:34:44.146Z,1014.23
2016-11-23T06:35:44.167Z,1014.24
2016-11-23T06:36:44.179Z,1014.21
2016-11-23T06:37:44.198Z,1014.19
2016-11-23T06:38:44.218Z,1014.21
2016-11-23T06:39:44.234Z,1014.22
2016-11-23T06:40:44.252Z,1014.19
2016-11-23T06:41:44.271Z,1014.17
2016-11-23T06:42:44.291Z,1014.15
2016-11-23T06:43:44.309Z,1014.15
2016-11-23T06:44:44.325Z,1014.13
2016-11-23T06:46:44.362Z,1014.14
2016-11-23T06:47:44.381Z,1014.12
2016-11-23T06:48:44.450Z,1014.14
2016-11-23T06:49:44.416Z,1014.15
2016-11-23T06:50:44.433Z,1014.19
2016-11-23T06:51:44.452Z,1014.22
2016-11-23T06:52:44.472Z,1014.24
2016-11-23T06:53:44.489Z,1014.26
2016-11-23T06:54:44.508Z,1014.31
2016-11-23T06:55:44.524Z,1014.35
2016-11-23T06:56:44.544Z,1014.32
2016-11-23T06:57:44.563Z,1014.32
2016-11-23T06:58:44.578Z,1014.32
2016-11-23T06:59:44.597Z,1014.28
2016-11-23T07:00:44.615Z,1014.32
2016-11-23T07:02:44.653Z,1014.33
2016-11-23T07:03:44.670Z,1014.3
2016-11-23T07:04:44.688Z,1014.3
2016-11-23T07:05:44.708Z,1014.32
2016-11-23T07:06:44.724Z,1014.35
2016-11-23T07:07:44.742Z,1014.33
2016-11-23T07:08:44.763Z,1014.36
2016-11-23T07:09:44.778Z,1014.35
2016-11-23T07:10:44.797Z,1014.31
2016-11-23T07:11:44.815Z,1014.33
2016-11-23T07:12:44.835Z,1014.32
2016-11-23T07:13:44.853Z,1014.35
2016-11-23T07:14:44.872Z,1014.32
2016-11-23T07:15:44.888Z,1014.32
2016-11-23T07:16:44.906Z,1014.31
2016-11-23T07:18:44.943Z,1014.27
2016-11-23T07:19:44.963Z,1014.25
2016-11-23T07:20:44.979Z,1014.24
2016-11-23T07:21:45.000Z,1014.29
2016-11-23T07:22:45.018Z,1014.28
2016-11-23T07:23:45.034Z,1014.31
2016-11-23T07:24:45.052Z,1014.29
2016-11-23T07:25:45.071Z,1014.31
2016-11-23T07:26:45.092Z,1014.34
2016-11-23T07:27:45.107Z,1014.36
2016-11-23T07:28:45.126Z,1014.36
2016-11-23T07:29:45.144Z,1014.41
2016-11-23T07:30:45.164Z,1014.41
2016-11-23T07:31:45.182Z,1014.42
2016-11-23T07:33:45.220Z,1014.47
2016-11-23T07:34:45.241Z,1014.45
2016-11-23T07:35:45.259Z,1014.5
2016-11-23T07:36:45.278Z,1014.52
2016-11-23T07:37:45.297Z,1014.54
2016-11-23T07:38:45.315Z,1014.53
2016-11-23T07:39:45.331Z,1014.55
2016-11-23T07:40:45.351Z,1014.6
2016-11-23T07:41:45.370Z,1014.56
2016-11-23T07:42:45.390Z,1014.61
2016-11-23T07:43:45.409Z,1014.63
2016-11-23T07:44:45.426Z,1014.63
2016-11-23T07:45:45.446Z,1014.61
2016-11-23T07:46:45.465Z,1014.57
2016-11-23T07:47:45.482Z,1014.59
2016-11-23T07:48:45.504Z,1014.58
2016-11-23T07:49:45.520Z,1014.57
2016-11-23T07:50:45.539Z,1014.61
2016-11-23T07:51:45.558Z,1014.58
2016-11-23T07:52:45.577Z,1014.56
2016-11-23T07:53:45.596Z,1014.56
2016-11-23T07:54:45.617Z,1014.52
2016-11-23T07:55:45.637Z,1014.52
2016-11-23T07:56:45.654Z,1014.58
2016-11-23T07:57:45.677Z,1014.57
2016-11-23T07:58:45.719Z,1014.59
2016-11-23T07:59:45.713Z,1014.58
2016-11-23T08:00:45.729Z,1014.58
2016-11-23T08:01:45.751Z,1014.6
2016-11-23T08:02:45.770Z,1014.64
2016-11-23T08:03:45.787Z,1014.63
2016-11-23T08:05:45.826Z,1014.66
2016-11-23T08:06:45.845Z,1014.69
2016-11-23T08:07:45.866Z,1014.69
2016-11-23T08:08:45.885Z,1014.68
2016-11-23T08:09:45.902Z,1014.69
2016-11-23T08:10:45.922Z,1014.67
2016-11-23T08:11:45.940Z,1014.65
2016-11-23T08:12:45.960Z,1014.72
2016-11-23T08:13:45.981Z,1014.69
2016-11-23T08:14:45.999Z,1014.78
2016-11-23T08:15:46.019Z,1014.77
2016-11-23T08:16:46.039Z,1014.79
2016-11-23T08:17:46.056Z,1014.84
2016-11-23T08:18:46.077Z,1014.84
2016-11-23T08:19:46.094Z,1014.86
2016-11-23T08:21:46.134Z,1014.86
2016-11-23T08:22:46.153Z,1014.88
2016-11-23T08:23:46.174Z,1014.86
2016-11-23T08:24:46.194Z,1014.88
2016-11-23T08:25:46.213Z,1014.91
2016-11-23T08:26:46.231Z,1014.89
2016-11-23T08:27:46.250Z,1014.9
2016-11-23T08:28:46.272Z,1014.89
2016-11-23T08:29:46.294Z,1014.97
2016-11-23T08:30:46.312Z,1014.94
2016-11-23T08:31:46.331Z,1014.91
2016-11-23T08:32:46.352Z,1014.88
2016-11-23T08:33:46.370Z,1014.85
2016-11-23T08:34:46.390Z,1014.86
2016-11-23T08:35:46.408Z,1014.78
2016-11-23T08:37:46.450Z,1014.81
2016-11-23T08:38:46.467Z,1014.84
2016-11-23T08:39:46.491Z,1014.86
2016-11-23T08:40:46.507Z,1014.87
2016-11-23T08:41:46.527Z,1014.92
2016-11-23T08:42:46.548Z,1014.97
2016-11-23T08:43:46.567Z,1014.96
2016-11-23T08:44:46.588Z,1014.97
2016-11-23T08:45:46.608Z,1014.93
2016-11-23T08:46:46.626Z,1014.94
2016-11-23T08:47:46.647Z,1014.9
2016-11-23T08:48:46.665Z,1014.87
2016-11-23T08:49:46.686Z,1014.9
2016-11-23T08:50:46.711Z,1014.86
2016-11-23T08:51:46.729Z,1014.79
2016-11-23T08:53:46.767Z,1014.79
2016-11-23T08:54:46.788Z,1014.82
2016-11-23T08:55:46.807Z,1014.75
2016-11-23T08:56:46.827Z,1014.74
2016-11-23T08:57:46.847Z,1014.78
2016-11-23T08:58:46.866Z,1014.79
2016-11-23T08:59:46.885Z,1014.78
2016-11-23T09:00:46.907Z,1014.8
2016-11-23T09:01:46.925Z,1014.88
2016-11-23T09:02:46.945Z,1014.87
2016-11-23T09:03:46.964Z,1014.84
2016-11-23T09:04:46.986Z,1014.85
2016-11-23T09:05:47.005Z,1014.85
2016-11-23T09:06:47.025Z,1014.83
2016-11-23T09:08:47.067Z,1014.89
2016-11-23T09:09:47.087Z,1014.83
2016-11-23T09:10:47.108Z,1014.84
2016-11-23T09:11:47.126Z,1014.84
2016-11-23T09:12:47.146Z,1014.86
2016-11-23T09:13:47.166Z,1014.81
2016-11-23T09:14:47.188Z,1014.82
2016-11-23T09:15:47.208Z,1014.84
2016-11-23T09:16:47.226Z,1014.82
2016-11-23T09:17:47.247Z,1014.82
2016-11-23T09:18:47.271Z,1014.86
2016-11-23T09:19:47.287Z,1014.83
2016-11-23T09:20:47.308Z,1014.86
2016-11-23T09:21:47.327Z,1014.88
2016-11-23T09:22:47.349Z,1014.92
2016-11-23T09:23:47.368Z,1014.82
2016-11-23T09:24:47.387Z,1014.85
2016-11-23T09:25:47.408Z,1014.82
2016-11-23T09:26:47.430Z,1014.8
2016-11-23T09:27:47.449Z,1014.82
2016-11-23T09:28:47.468Z,1014.82
2016-11-23T09:29:47.491Z,1014.81
2016-11-23T09:30:47.509Z,1014.82
2016-11-23T09:31:47.531Z,1014.81
2016-11-23T09:32:47.549Z,1014.8
2016-11-23T09:33:47.572Z,1014.81
2016-11-23T09:34:47.590Z,1014.77
2016-11-23T09:35:47.612Z,1014.75
2016-11-23T09:36:47.633Z,1014.71
2016-11-23T09:37:47.651Z,1014.73
2016-11-23T09:38:47.671Z,1014.7
2016-11-23T09:40:47.712Z,1014.7
2016-11-23T09:41:47.732Z,1014.72
2016-11-23T09:42:47.751Z,1014.68
2016-11-23T09:43:47.774Z,1014.72
2016-11-23T09:44:47.795Z,1014.72
2016-11-23T09:45:47.816Z,1014.71
2016-11-23T09:46:47.837Z,1014.72
2016-11-23T09:47:47.854Z,1014.69
2016-11-23T09:48:47.877Z,1014.65
2016-11-23T09:49:47.896Z,1014.67
2016-11-23T09:50:47.915Z,1014.6
2016-11-23T09:51:47.938Z,1014.64
2016-11-23T09:52:47.960Z,1014.65
2016-11-23T09:53:47.976Z,1014.61
2016-11-23T09:54:47.997Z,1014.61
2016-11-23T09:56:48.040Z,1014.6
2016-11-23T09:57:48.058Z,1014.66
2016-11-23T09:58:48.081Z,1014.67
2016-11-23T09:59:48.100Z,1014.64
2016-11-23T10:00:48.120Z,1014.66
2016-11-23T10:01:48.143Z,1014.65
2016-11-23T10:02:48.164Z,1014.67
2016-11-23T10:03:48.185Z,1014.66
2016-11-23T10:04:48.205Z,1014.68
2016-11-23T10:05:48.226Z,1014.71
2016-11-23T10:06:48.247Z,1014.73
2016-11-23T10:07:48.266Z,1014.75
2016-11-23T10:08:48.288Z,1014.79
2016-11-23T10:09:48.309Z,1014.75
2016-11-23T10:10:48.329Z,1014.76
2016-11-23T10:12:48.370Z,1014.8
2016-11-23T10:13:48.391Z,1014.84
2016-11-23T10:14:48.413Z,1014.87
2016-11-23T10:15:48.435Z,1014.9
2016-11-23T10:16:48.457Z,1014.93
2016-11-23T10:17:48.476Z,1014.93
2016-11-23T10:18:48.497Z,1014.92
2016-11-23T10:19:48.518Z,1014.97
2016-11-23T10:20:48.541Z,1014.98
2016-11-23T10:21:48.563Z,1015.01
2016-11-23T10:22:48.584Z,1015.04
2016-11-23T10:23:48.605Z,1015.05
2016-11-23T10:24:48.627Z,1015.04
2016-11-23T10:25:48.646Z,1015.04
2016-11-23T10:26:48.667Z,1015.01
2016-11-23T10:28:48.714Z,1015.01
2016-11-23T10:29:48.734Z,1015.02
2016-11-23T10:30:48.752Z,1014.99
2016-11-23T10:31:48.776Z,1014.97
2016-11-23T10:32:48.798Z,1015
2016-11-23T10:33:48.818Z,1014.97
2016-11-23T10:34:48.841Z,1014.88
2016-11-23T10:35:48.864Z,1014.86
2016-11-23T10:36:48.882Z,1014.82
2016-11-23T10:37:48.903Z,1014.8
2016-11-23T10:38:48.925Z,1014.81
2016-11-23T10:39:48.949Z,1014.79
2016-11-23T10:40:48.969Z,1014.79
2016-11-23T10:41:48.991Z,1014.68
2016-11-23T10:43:49.034Z,1014.65
2016-11-23T10:44:49.057Z,1014.67
2016-11-23T10:45:49.079Z,1014.63
2016-11-23T10:46:49.101Z,1014.63
2016-11-23T10:47:49.123Z,1014.67
2016-11-23T10:48:49.144Z,1014.69
2016-11-23T10:49:49.167Z,1014.65
2016-11-23T10:50:49.185Z,1014.67
2016-11-23T10:51:49.209Z,1014.69
2016-11-23T10:52:49.228Z,1014.63
2016-11-23T10:53:49.252Z,1014.65
2016-11-23T10:54:49.272Z,1014.63
2016-11-23T10:55:49.295Z,1014.6
2016-11-23T10:56:49.316Z,1014.58
2016-11-23T10:57:49.339Z,1014.6
2016-11-23T10:58:49.360Z,1014.57
2016-11-23T10:59:49.381Z,1014.58
2016-11-23T11:00:49.401Z,1014.55
2016-11-23T11:01:49.425Z,1014.49
2016-11-23T11:02:49.443Z,1014.5
2016-11-23T11:03:49.465Z,1014.43
2016-11-23T11:04:49.487Z,1014.43
2016-11-23T11:05:49.511Z,1014.43
2016-11-23T11:06:49.532Z,1014.45
2016-11-23T11:07:49.553Z,1014.42
2016-11-23T11:08:49.573Z,1014.42
2016-11-23T11:09:49.597Z,1014.46
2016-11-23T11:10:49.617Z,1014.47
2016-11-23T11:11:49.639Z,1014.46
2016-11-23T11:12:49.712Z,1014.45
2016-11-23T11:13:49.680Z,1014.42
2016-11-23T11:15:49.724Z,1014.41
2016-11-23T11:16:49.748Z,1014.4
2016-11-23T11:17:49.767Z,1014.49
2016-11-23T11:18:49.788Z,1014.48
2016-11-23T11:19:49.810Z,1014.44
2016-11-23T11:20:49.834Z,1014.46
2016-11-23T11:21:49.855Z,1014.48
2016-11-23T11:22:49.875Z,1014.46
2016-11-23T11:23:49.896Z,1014.47
2016-11-23T11:24:49.917Z,1014.48
2016-11-23T11:25:49.941Z,1014.48
2016-11-23T11:26:49.961Z,1014.49
2016-11-23T11:27:49.983Z,1014.48
2016-11-23T11:28:50.006Z,1014.48
2016-11-23T11:29:50.026Z,1014.49
2016-11-23T11:31:50.070Z,1014.53
2016-11-23T11:32:50.090Z,1014.56
2016-11-23T11:33:50.115Z,1014.55
2016-11-23T11:34:50.136Z,1014.55
2016-11-23T11:35:50.157Z,1014.53
2016-11-23T11:36:50.179Z,1014.52
2016-11-23T11:37:50.199Z,1014.57
2016-11-23T11:38:50.223Z,1014.59
2016-11-23T11:39:50.244Z,1014.5
2016-11-23T11:40:50.266Z,1014.56
2016-11-23T11:41:50.286Z,1014.55
2016-11-23T11:42:50.308Z,1014.55
2016-11-23T11:43:50.331Z,1014.55
2016-11-23T11:44:50.353Z,1014.55
2016-11-23T11:45:50.373Z,1014.51
2016-11-23T11:47:50.416Z,1014.55
2016-11-23T11:48:50.437Z,1014.57
2016-11-23T11:49:50.460Z,1014.61
2016-11-23T11:50:50.483Z,1014.64
2016-11-23T11:51:50.505Z,1014.65
2016-11-23T11:52:50.525Z,1014.64
2016-11-23T11:53:50.547Z,1014.62
2016-11-23T11:54:50.570Z,1014.65
2016-11-23T11:55:50.592Z,1014.61
2016-11-23T11:56:50.612Z,1014.6
2016-11-23T11:57:50.633Z,1014.6
2016-11-23T11:58:50.657Z,1014.57
2016-11-23T11:59:50.677Z,1014.58
2016-11-23T12:00:50.699Z,1014.61
2016-11-23T12:01:50.722Z,1014.59
2016-11-23T12:03:50.764Z,1014.65
2016-11-23T12:04:50.786Z,1014.62
2016-11-23T12:05:50.808Z,1014.64
2016-11-23T12:06:50.831Z,1014.65
2016-11-23T12:07:50.851Z,1014.65
2016-11-23T12:08:50.875Z,1014.65
2016-11-23T12:09:51.197Z,1014.67
2016-11-23T12:10:50.917Z,1014.67
2016-11-23T12:11:50.941Z,1014.68
2016-11-23T12:12:50.961Z,1014.69
2016-11-23T12:13:50.982Z,1014.69
2016-11-23T12:14:51.004Z,1014.66
2016-11-23T12:15:51.028Z,1014.65
2016-11-23T12:16:51.051Z,1014.68
2016-11-23T12:18:51.093Z,1014.64
2016-11-23T12:19:51.116Z,1014.67
2016-11-23T12:20:51.141Z,1014.62
2016-11-23T12:21:51.158Z,1014.63
2016-11-23T12:22:51.183Z,1014.57
2016-11-23T12:23:51.201Z,1014.59
2016-11-23T12:24:51.226Z,1014.58
2016-11-23T12:25:51.246Z,1014.55
2016-11-23T12:26:51.269Z,1014.54
2016-11-23T12:27:51.292Z,1014.51
2016-11-23T12:28:51.311Z,1014.52
2016-11-23T12:29:51.336Z,1014.48
2016-11-23T12:30:51.357Z,1014.47
2016-11-23T12:31:51.377Z,1014.45
2016-11-23T12:32:51.399Z,1014.42
2016-11-23T12:33:51.424Z,1014.38
2016-11-23T12:34:51.445Z,1014.39
2016-11-23T12:35:51.465Z,1014.37
2016-11-23T12:36:51.489Z,1014.35
2016-11-23T12:37:51.510Z,1014.41
2016-11-23T12:38:51.533Z,1014.38
2016-11-23T12:39:51.555Z,1014.34
2016-11-23T12:40:51.577Z,1014.36
2016-11-23T12:41:51.596Z,1014.31
2016-11-23T12:42:51.620Z,1014.34
2016-11-23T12:43:51.642Z,1014.29
2016-11-23T12:44:51.664Z,1014.32
2016-11-23T12:45:51.685Z,1014.3
2016-11-23T12:46:51.705Z,1014.3
2016-11-23T12:47:51.728Z,1014.32
2016-11-23T12:48:51.751Z,1014.31